Time;durP1;ratioP1;P1;durP2;ratioP2;P2;SDS_P1;SDS_P2;PMS_P1;PMS_P2;Temp;Humidity;BMP_temperature;BMP_pressure;BME280_temperature;BME280_humidity;BME280_pressure;Samples;Min_cycle;Max_cycle;Signal;HPM_P1;HPM_P2
2021/11/25 00:00:10;;;;;;;58.60;40.22;;;;;;;-0.07;100.00;101319.88;5125621;27;20386;-84
2021/11/25 00:02:35;;;;;;;59.17;39.83;;;;;;;-0.03;100.00;101310.53;5124471;27;20031;-75
2021/11/25 00:05:00;;;;;;;59.55;41.97;;;;;;;-0.06;100.00;101319.09;5126844;27;20402;-78
2021/11/25 00:07:26;;;;;;;63.75;43.13;;;;;;;-0.06;100.00;101321.69;5123955;27;20027;-77
2021/11/25 00:09:51;;;;;;;62.08;41.38;;;;;;;0.01;100.00;101316.81;5126640;27;20019;-69
2021/11/25 00:12:17;;;;;;;59.85;40.92;;;;;;;-0.10;100.00;101311.91;5124629;27;20023;-70
2021/11/25 00:14:43;;;;;;;57.63;39.33;;;;;;;-0.19;100.00;101307.09;5125668;27;20030;-69
2021/11/25 00:17:08;;;;;;;66.53;44.65;;;;;;;-0.19;100.00;101301.00;5125740;27;20023;-77
2021/11/25 00:19:34;;;;;;;65.45;42.92;;;;;;;-0.15;100.00;101299.47;5123892;27;20032;-69
2021/11/25 00:21:59;;;;;;;62.30;42.92;;;;;;;-0.22;100.00;101306.94;5127003;27;20030;-73
2021/11/25 00:24:25;;;;;;;56.63;39.83;;;;;;;-0.38;100.00;101301.69;5123214;27;20023;-73
2021/11/25 00:26:50;;;;;;;59.80;40.95;;;;;;;-0.41;100.00;101304.09;5126108;27;20023;-70
2021/11/25 00:29:15;;;;;;;59.95;40.95;;;;;;;-0.35;100.00;101291.44;5124719;27;20505;-72
2021/11/25 00:31:41;;;;;;;60.92;42.35;;;;;;;-0.44;100.00;101299.63;5124672;27;20366;-82
2021/11/25 00:34:06;;;;;;;61.72;41.75;;;;;;;-0.43;100.00;101292.75;5125898;27;20106;-83
2021/11/25 00:36:31;;;;;;;56.50;39.25;;;;;;;-0.46;100.00;101293.47;5123292;27;20108;-76
2021/11/25 00:38:57;;;;;;;55.97;39.03;;;;;;;-0.46;100.00;101293.47;5126598;27;20351;-85
2021/11/25 00:41:22;;;;;;;63.28;43.22;;;;;;;-0.49;100.00;101289.81;5123324;27;20109;-79
2021/11/25 00:43:48;;;;;;;61.13;42.25;;;;;;;-0.48;100.00;101296.78;5125527;27;20106;-83
2021/11/25 00:46:13;;;;;;;54.78;37.97;;;;;;;-0.51;100.00;101294.94;5124487;27;20488;-76
2021/11/25 00:48:38;;;;;;;57.83;40.20;;;;;;;-0.59;100.00;101294.47;5124234;27;20098;-82
2021/11/25 00:51:04;;;;;;;56.15;37.92;;;;;;;-0.67;100.00;101294.84;5125699;27;20482;-85
2021/11/25 00:53:29;;;;;;;62.90;42.30;;;;;;;-0.59;100.00;101293.59;5122741;27;20112;-78
2021/11/25 00:55:55;;;;;;;67.60;43.92;;;;;;;-0.61;100.00;101297.78;5126356;27;20326;-82
2021/11/25 00:58:20;;;;;;;61.08;41.38;;;;;;;-0.63;100.00;101292.50;5123224;27;20035;-82
2021/11/25 01:00:47;;;;;;;61.47;40.40;;;;;;;-0.68;100.00;101293.03;5124982;27;20546;-83
2021/11/25 01:03:12;;;;;;;62.65;41.40;;;;;;;-0.68;100.00;101290.44;5124546;27;20031;-77
2021/11/25 01:05:38;;;;;;;63.13;41.40;;;;;;;-0.56;100.00;101293.75;5123600;27;20023;-77
2021/11/25 01:08:04;;;;;;;59.25;39.35;;;;;;;-0.59;100.00;101298.78;5125733;27;20023;-84
2021/11/25 01:10:29;;;;;;;59.53;37.92;;;;;;;-0.64;100.00;101297.63;5122472;27;20031;-71
2021/11/25 01:12:56;;;;;;;54.33;36.42;;;;;;;-0.63;100.00;101291.63;5125606;27;20019;-71
2021/11/25 01:15:29;;;;;;;60.00;41.63;;;;;;;-0.65;100.00;101288.06;5123114;27;20106;-72
2021/11/25 01:17:57;;;;;;;57.72;38.53;;;;;;;-0.65;100.00;101288.06;5126033;27;20023;-71
2021/11/25 01:20:23;;;;;;;54.55;37.42;;;;;;;-0.74;100.00;101286.72;5122869;27;20031;-71
2021/11/25 01:22:48;;;;;;;58.22;39.92;;;;;;;-0.68;100.00;101291.38;5125003;27;20136;-71
2021/11/25 01:25:14;;;;;;;61.78;41.70;;;;;;;-0.73;100.00;101288.50;5123891;27;20496;-72
2021/11/25 01:27:39;;;;;;;56.17;38.22;;;;;;;-0.79;100.00;101292.44;5123229;27;20028;-72
2021/11/25 01:30:07;;;;;;;54.58;36.97;;;;;;;-0.79;100.00;101287.25;5106210;27;20031;-72
2021/11/25 01:32:32;;;;;;;61.60;41.35;;;;;;;-0.85;100.00;101282.59;5122450;27;20031;-71
2021/11/25 01:34:58;;;;;;;56.47;39.15;;;;;;;-0.98;100.00;101281.00;5125526;27;20385;-71
2021/11/25 01:37:25;;;;;;;59.47;40.70;;;;;;;-0.91;100.00;101285.72;5122417;27;20023;-70
2021/11/25 01:39:51;;;;;;;56.65;39.63;;;;;;;-0.89;100.00;101280.63;5124937;27;20026;-71
2021/11/25 01:42:16;;;;;;;58.42;39.63;;;;;;;-1.00;100.00;101286.94;5122998;27;20023;-71
2021/11/25 01:44:41;;;;;;;60.05;41.30;;;;;;;-1.00;100.00;101276.53;5123627;27;20034;-71
2021/11/25 01:47:07;;;;;;;59.95;40.65;;;;;;;-0.96;100.00;101269.00;5124429;27;20035;-71
2021/11/25 01:49:32;;;;;;;57.33;38.53;;;;;;;-1.03;100.00;101272.06;5121955;27;20110;-71
2021/11/25 01:51:58;;;;;;;59.13;39.80;;;;;;;-1.02;100.00;101270.34;5125451;27;20050;-71
2021/11/25 01:54:24;;;;;;;57.08;38.40;;;;;;;-1.11;100.00;101275.91;5122307;27;20167;-71
2021/11/25 01:56:50;;;;;;;55.10;38.33;;;;;;;-1.06;100.00;101270.19;5124452;27;20020;-71
2021/11/25 01:59:16;;;;;;;62.38;40.35;;;;;;;-1.02;100.00;101267.75;5123252;27;20505;-72
2021/11/25 02:01:41;;;;;;;61.38;40.15;;;;;;;-1.00;100.00;101260.97;5138903;27;20031;-70
2021/11/25 02:04:08;;;;;;;59.22;39.92;;;;;;;-0.96;100.00;101255.13;5124206;27;20043;-71
2021/11/25 02:06:33;;;;;;;56.28;37.95;;;;;;;-0.87;100.00;101242.69;5122322;28;20016;-72
2021/11/25 02:08:59;;;;;;;57.20;38.17;;;;;;;-0.90;100.00;101252.91;5125056;27;20026;-72
2021/11/25 02:11:25;;;;;;;55.28;38.42;;;;;;;-0.96;100.00;101249.94;5121935;27;20019;-68
2021/11/25 02:13:51;;;;;;;55.97;37.47;;;;;;;-1.00;100.00;101253.19;5124333;28;20031;-69
2021/11/25 02:16:16;;;;;;;53.88;36.67;;;;;;;-0.92;100.00;101250.22;5122977;28;20024;-70
2021/11/25 02:18:42;;;;;;;58.17;39.78;;;;;;;-0.87;100.00;101247.88;5122948;28;20031;-69
2021/11/25 02:21:07;;;;;;;59.58;40.17;;;;;;;-0.88;100.00;101246.97;5124425;28;20052;-70
2021/11/25 02:23:33;;;;;;;61.40;41.50;;;;;;;-0.85;100.00;101243.66;5125120;27;20423;-68
2021/11/25 02:26:00;;;;;;;59.63;40.53;;;;;;;-0.88;100.00;101240.88;5129263;27;20044;-69
2021/11/25 02:28:30;;;;;;;57.90;39.30;;;;;;;-0.89;100.00;101245.19;5125719;27;20023;-69
2021/11/25 02:30:56;;;;;;;58.08;39.80;;;;;;;-0.89;100.00;101237.41;5129045;27;20034;-68
2021/11/25 02:33:21;;;;;;;58.63;40.25;;;;;;;-0.94;100.00;101220.66;5126171;27;20031;-72
2021/11/25 02:35:47;;;;;;;58.20;39.83;;;;;;;-0.98;100.00;101220.41;5127722;27;20031;-69
2021/11/25 02:38:14;;;;;;;57.85;39.33;;;;;;;-1.03;100.00;101225.34;5127276;27;21809;-70
2021/11/25 02:40:46;;;;;;;59.35;39.53;;;;;;;-1.10;100.00;101213.69;5126367;27;20485;-68
2021/11/25 02:43:16;;;;;;;60.75;42.08;;;;;;;-1.01;100.00;101213.34;5127432;27;20027;-69
2021/11/25 02:45:53;;;;;;;55.90;39.53;;;;;;;-1.02;100.00;101208.06;5126636;27;20026;-70
2021/11/25 02:48:23;;;;;;;61.03;42.03;;;;;;;-1.04;100.00;101217.47;5126348;27;20069;-68
2021/11/25 02:50:51;;;;;;;63.72;43.65;;;;;;;-1.08;100.00;101214.69;5127826;27;20050;-70
2021/11/25 02:53:22;;;;;;;62.17;43.00;;;;;;;-1.03;100.00;101203.66;5126708;27;20023;-71
2021/11/25 02:55:48;;;;;;;66.15;44.33;;;;;;;-1.01;100.00;101208.16;5127254;27;20375;-79
2021/11/25 02:58:14;;;;;;;60.10;42.08;;;;;;;-0.93;100.00;101211.19;5126765;27;20015;-78
2021/11/25 03:00:43;;;;;;;56.88;39.13;;;;;;;-0.97;100.00;101210.13;5126411;27;20077;-79
2021/11/25 03:03:12;;;;;;;56.75;38.90;;;;;;;-0.92;100.00;101207.78;5127273;27;20079;-79
2021/11/25 03:05:40;;;;;;;54.05;37.25;;;;;;;-0.92;100.00;101203.50;5125589;27;20024;-78
2021/11/25 03:08:08;;;;;;;54.25;37.38;;;;;;;-0.97;100.00;101198.84;5127981;27;20094;-69
2021/11/25 03:10:39;;;;;;;57.38;38.80;;;;;;;-1.00;100.00;101191.78;5124861;27;20019;-69
2021/11/25 03:13:06;;;;;;;58.58;40.25;;;;;;;-1.01;100.00;101189.97;5127963;27;20083;-69
2021/11/25 03:15:32;;;;;;;59.10;40.25;;;;;;;-1.00;100.00;101183.09;5124964;27;20024;-74
2021/11/25 03:17:58;;;;;;;59.00;41.35;;;;;;;-1.07;100.00;101174.94;5121143;27;20099;-71
2021/11/25 03:20:24;;;;;;;61.17;42.28;;;;;;;-1.11;100.00;101172.97;5127957;27;20027;-72
2021/11/25 03:22:50;;;;;;;59.17;42.53;;;;;;;-1.14;100.00;101165.03;5125495;27;20347;-71
2021/11/25 03:25:15;;;;;;;59.17;41.08;;;;;;;-1.21;100.00;101173.25;5126446;27;20381;-68
2021/11/25 03:27:40;;;;;;;61.65;42.63;;;;;;;-1.23;100.00;101178.38;5126680;27;20027;-73
2021/11/25 03:30:07;;;;;;;57.75;40.97;;;;;;;-1.15;100.00;101177.91;5125057;27;20031;-75
2021/11/25 03:32:32;;;;;;;63.08;42.78;;;;;;;-1.05;100.00;101169.84;5127821;27;20023;-75
2021/11/25 03:34:57;;;;;;;61.58;43.25;;;;;;;-1.02;100.00;101164.84;5122873;27;20022;-73
2021/11/25 03:37:23;;;;;;;64.47;43.63;;;;;;;-0.99;100.00;101166.69;5127353;27;20019;-73
2021/11/25 03:39:49;;;;;;;63.72;44.47;;;;;;;-0.96;100.00;101164.28;5125307;27;20019;-75
2021/11/25 03:42:14;;;;;;;60.97;43.65;;;;;;;-0.94;100.00;101165.28;5125640;27;20093;-74
2021/11/25 03:44:43;;;;;;;65.40;44.45;;;;;;;-0.82;100.00;101152.97;5126736;27;20026;-74
2021/11/25 03:47:08;;;;;;;63.10;43.60;;;;;;;-0.78;100.00;101157.53;5125026;27;20085;-75
2021/11/25 03:49:34;;;;;;;64.95;44.72;;;;;;;-0.74;100.00;101161.19;5127255;27;20415;-73
2021/11/25 03:51:59;;;;;;;64.32;45.17;;;;;;;-0.75;100.00;101159.41;5124380;27;20020;-74
2021/11/25 03:54:24;;;;;;;60.88;42.78;;;;;;;-0.66;100.00;101153.81;5127041;27;20458;-74
2021/11/25 03:56:50;;;;;;;63.10;42.28;;;;;;;-0.67;100.00;101147.75;5125160;27;20442;-73
2021/11/25 03:59:15;;;;;;;61.42;44.38;;;;;;;-0.71;100.00;101150.97;5125991;27;20509;-75
2021/11/25 04:01:40;;;;;;;63.00;43.08;;;;;;;-0.64;100.00;101155.69;5126045;27;20023;-75
2021/11/25 04:04:06;;;;;;;60.67;42.80;;;;;;;-0.63;100.00;101147.06;5124005;27;20047;-73
2021/11/25 04:06:31;;;;;;;60.78;42.83;;;;;;;-0.55;100.00;101144.91;5127427;27;20075;-71
2021/11/25 04:08:57;;;;;;;60.83;42.30;;;;;;;-0.51;100.00;101141.69;5123549;27;20016;-71
2021/11/25 04:11:22;;;;;;;59.22;41.85;;;;;;;-0.48;100.00;101131.44;5126446;27;20516;-69
2021/11/25 04:13:47;;;;;;;58.05;41.70;;;;;;;-0.41;100.00;101138.75;5125061;27;20031;-69
2021/11/25 04:16:14;;;;;;;59.40;41.35;;;;;;;-0.34;100.00;101136.47;5124832;27;20023;-70
2021/11/25 04:18:39;;;;;;;58.45;40.80;;;;;;;-0.31;100.00;101131.44;5126267;27;20019;-69
2021/11/25 04:21:05;;;;;;;61.25;42.85;;;;;;;-0.31;100.00;101129.72;5123604;27;20485;-70
2021/11/25 04:23:30;;;;;;;59.72;42.40;;;;;;;-0.33;100.00;101122.69;5126797;27;20027;-69
2021/11/25 04:25:56;;;;;;;61.30;42.28;;;;;;;-0.31;100.00;101121.94;5123695;27;20525;-69
2021/11/25 04:28:21;;;;;;;58.38;41.08;;;;;;;-0.34;100.00;101131.28;5125756;27;20093;-70
2021/11/25 04:35:56;;;;;;;57.15;40.50;;;;;;;-0.12;100.00;101128.09;5132671;27;20088;-67
2021/11/25 04:38:22;;;;;;;58.65;42.05;;;;;;;-0.11;100.00;101125.56;5134789;27;20020;-69
2021/11/25 04:40:57;;;;;;;58.30;41.15;;;;;;;-0.01;100.00;101135.63;5115291;27;20505;-69
2021/11/25 04:43:23;;;;;;;58.17;41.38;;;;;;;-0.05;100.00;101131.09;5126600;27;20035;-69
2021/11/25 04:45:51;;;;;;;59.13;41.03;;;;;;;0.02;100.00;101137.50;5123878;27;20027;-71
2021/11/25 04:48:19;;;;;;;59.92;42.55;;;;;;;0.04;100.00;101137.59;5124847;27;20331;-72
2021/11/25 04:50:45;;;;;;;58.92;40.90;;;;;;;0.03;100.00;101133.19;5124950;27;20027;-72
2021/11/25 04:53:12;;;;;;;58.83;41.20;;;;;;;0.10;100.00;101128.41;5123929;27;20027;-70
2021/11/25 04:55:38;;;;;;;59.10;41.78;;;;;;;0.10;100.00;101132.69;5125730;27;20102;-71
2021/11/25 04:58:04;;;;;;;59.13;41.03;;;;;;;0.10;100.00;101137.91;5122961;27;20426;-73
2021/11/25 05:00:30;;;;;;;56.97;40.55;;;;;;;0.08;100.00;101142.13;5126231;27;20481;-71
2021/11/25 05:02:55;;;;;;;59.35;41.95;;;;;;;0.04;100.00;101140.19;5122903;27;20063;-72
2021/11/25 05:05:22;;;;;;;57.95;40.92;;;;;;;-0.16;100.00;101147.84;5125142;27;20494;-71
2021/11/25 05:07:47;;;;;;;60.08;42.40;;;;;;;-0.29;100.00;101145.38;5124021;27;20058;-71
2021/11/25 05:10:13;;;;;;;62.22;43.53;;;;;;;-0.33;100.00;101143.47;5123964;27;20363;-69
2021/11/25 05:12:38;;;;;;;63.63;41.63;;;;;;;-0.34;100.00;101146.88;5125388;27;20023;-70
2021/11/25 05:15:09;;;;;;;63.08;44.60;;;;;;;-0.37;100.00;101150.19;5122746;27;20080;-70
2021/11/25 05:17:35;;;;;;;67.60;45.13;;;;;;;-0.33;100.00;101149.53;5125574;27;20023;-72
2021/11/25 05:20:01;;;;;;;65.53;44.60;;;;;;;-0.24;100.00;101149.16;5122532;27;20015;-71
2021/11/25 05:22:26;;;;;;;68.82;45.20;;;;;;;-0.17;100.00;101140.84;5125525;27;20525;-72
2021/11/25 05:24:52;;;;;;;66.28;46.20;;;;;;;-0.13;100.00;101137.63;5123175;27;20111;-67
2021/11/25 05:27:17;;;;;;;69.65;47.03;;;;;;;-0.09;100.00;101134.34;5124485;27;20020;-71
2021/11/25 05:29:42;;;;;;;75.38;48.25;;;;;;;-0.06;100.00;101138.81;5134518;27;20010;-68
2021/11/25 05:32:08;;;;;;;65.97;44.88;;;;;;;-0.08;100.00;101130.94;5110760;27;20085;-69
2021/11/25 05:34:34;;;;;;;71.60;46.08;;;;;;;0.03;100.00;101138.38;5125914;27;20377;-68
2021/11/25 05:36:59;;;;;;;68.90;47.30;;;;;;;0.03;100.00;101128.00;5122113;27;20016;-71
2021/11/25 05:39:25;;;;;;;67.32;45.63;;;;;;;0.05;100.00;101132.47;5124896;27;20488;-71
2021/11/25 05:41:50;;;;;;;68.57;47.17;;;;;;;0.10;100.00;101133.59;5122960;27;20023;-68
2021/11/25 05:44:15;;;;;;;68.93;46.35;;;;;;;0.12;100.00;101123.28;5123856;27;20028;-68
2021/11/25 05:46:41;;;;;;;72.53;46.70;;;;;;;0.21;100.00;101123.75;5124703;27;20053;-67
2021/11/25 05:49:07;;;;;;;69.13;45.78;;;;;;;0.22;100.00;101119.41;5122602;27;20051;-68
2021/11/25 05:51:34;;;;;;;73.05;46.70;;;;;;;0.30;100.00;101124.19;5125287;27;20042;-69
2021/11/25 05:53:59;;;;;;;69.35;45.75;;;;;;;0.33;100.00;101134.75;5117845;27;20115;-68
2021/11/25 05:56:25;;;;;;;71.63;45.58;;;;;;;0.34;100.00;101128.75;5123978;27;20058;-68
2021/11/25 05:58:50;;;;;;;69.05;45.20;;;;;;;0.39;100.00;101130.69;5122660;27;20061;-68
2021/11/25 06:01:15;;;;;;;71.13;46.40;;;;;;;0.42;100.00;101123.03;5123772;27;20434;-71
2021/11/25 06:03:41;;;;;;;71.32;45.70;;;;;;;0.42;100.00;101130.84;5123867;27;20398;-70
2021/11/25 06:06:06;;;;;;;69.38;46.00;;;;;;;0.51;100.00;101124.38;5121829;27;20376;-71
2021/11/25 06:08:31;;;;;;;74.45;47.70;;;;;;;0.55;100.00;101130.63;5125290;27;20028;-69
2021/11/25 06:11:01;;;;;;;76.13;47.42;;;;;;;0.61;100.00;101127.44;5121714;28;20067;-71
2021/11/25 06:13:26;;;;;;;70.97;46.28;;;;;;;0.60;100.00;101123.94;5124550;27;20031;-70
2021/11/25 06:15:52;;;;;;;68.80;45.17;;;;;;;0.61;100.00;101119.63;5122641;28;20031;-71
2021/11/25 06:18:17;;;;;;;71.25;45.40;;;;;;;0.59;100.00;101110.88;5123478;28;20024;-69
2021/11/25 06:20:42;;;;;;;68.55;44.97;;;;;;;0.63;100.00;101105.00;5123766;28;20015;-68
2021/11/25 06:23:08;;;;;;;68.70;45.72;;;;;;;0.63;100.00;101105.00;5122076;28;20137;-69
2021/11/25 06:25:33;;;;;;;70.72;47.80;;;;;;;0.69;100.00;101110.50;5124901;28;20466;-69
2021/11/25 06:27:59;;;;;;;76.25;48.35;;;;;;;0.75;100.00;101102.09;5121517;28;20027;-68
2021/11/25 06:30:24;;;;;;;74.07;47.83;;;;;;;0.81;100.00;101099.78;5124530;28;20019;-69
2021/11/25 06:32:51;;;;;;;76.63;48.85;;;;;;;0.84;100.00;101092.13;5122680;28;20019;-69
2021/11/25 06:35:19;;;;;;;74.10;46.75;;;;;;;0.85;100.00;101086.97;5123347;28;20053;-69
2021/11/25 06:37:53;;;;;;;73.07;48.55;;;;;;;0.92;100.00;101090.78;5123491;28;20079;-69
2021/11/25 06:40:25;;;;;;;71.90;46.00;;;;;;;0.94;100.00;101089.13;5123240;28;20019;-70
2021/11/25 06:42:52;;;;;;;75.40;48.03;;;;;;;0.99;100.00;101090.25;5122457;28;20027;-69
2021/11/25 06:45:18;;;;;;;73.93;47.40;;;;;;;0.99;100.00;101076.31;5123302;28;20471;-71
2021/11/25 06:47:46;;;;;;;73.13;48.50;;;;;;;1.01;100.00;101069.50;5123391;28;20076;-71
2021/11/25 06:50:12;;;;;;;71.15;47.70;;;;;;;1.02;100.00;101066.97;5122527;28;20089;-69
2021/11/25 06:52:38;;;;;;;72.43;47.92;;;;;;;1.06;100.00;101073.19;5124225;28;20466;-71
2021/11/25 06:55:05;;;;;;;72.85;47.72;;;;;;;1.08;100.00;101075.84;5116587;28;20027;-69
2021/11/25 06:57:31;;;;;;;69.95;46.72;;;;;;;1.07;100.00;101079.31;5116844;28;20026;-68
2021/11/25 06:59:58;;;;;;;70.85;47.38;;;;;;;1.07;100.00;101087.13;5116577;28;20110;-69
2021/11/25 07:02:23;;;;;;;71.00;47.33;;;;;;;1.10;100.00;101084.66;5115624;28;20040;-68
2021/11/25 07:04:48;;;;;;;73.25;48.75;;;;;;;1.08;100.00;101086.28;5114985;28;20494;-68
2021/11/25 07:07:14;;;;;;;74.57;48.42;;;;;;;1.07;100.00;101080.19;5109373;28;20035;-68
2021/11/25 07:09:39;;;;;;;70.70;47.33;;;;;;;1.13;100.00;101090.00;5102092;27;20052;-67
2021/11/25 07:12:05;;;;;;;72.68;46.50;;;;;;;1.16;100.00;101087.53;5115145;27;20127;-70
2021/11/25 07:14:30;;;;;;;77.20;48.15;;;;;;;1.18;100.00;101091.09;5094986;28;20035;-69
2021/11/25 07:16:57;;;;;;;73.53;47.38;;;;;;;1.23;100.00;101087.00;5113498;28;20023;-68
2021/11/25 07:19:22;;;;;;;78.85;48.97;;;;;;;1.26;100.00;101087.13;5113270;27;20030;-67
2021/11/25 07:21:48;;;;;;;74.45;48.22;;;;;;;1.27;100.00;101075.91;5119349;27;20370;-68
2021/11/25 07:24:13;;;;;;;74.43;49.00;;;;;;;1.32;100.00;101069.16;5117777;27;20877;-69
2021/11/25 07:26:38;;;;;;;68.95;46.20;;;;;;;1.31;100.00;101070.00;5119186;27;20034;-66
2021/11/25 07:29:04;;;;;;;71.50;49.83;;;;;;;1.31;100.00;101074.31;5117466;27;20078;-67
2021/11/25 07:31:29;;;;;;;73.28;47.85;;;;;;;1.29;100.00;101083.78;5115719;27;20074;-67
2021/11/25 07:33:58;;;;;;;74.78;49.90;;;;;;;1.29;100.00;101092.47;5117466;27;20027;-69
2021/11/25 07:36:24;;;;;;;73.47;48.38;;;;;;;1.32;100.00;101089.13;5114078;27;20038;-67
2021/11/25 07:38:49;;;;;;;75.00;49.65;;;;;;;1.36;100.00;101080.63;5120823;27;20470;-68
2021/11/25 07:41:15;;;;;;;75.18;49.13;;;;;;;1.36;100.00;101084.13;5118433;27;20028;-67
2021/11/25 07:43:41;;;;;;;75.40;50.55;;;;;;;1.45;100.00;101086.25;5117656;27;20055;-66
2021/11/25 07:46:06;;;;;;;73.25;48.60;;;;;;;1.50;100.00;101089.97;5115157;27;20058;-68
2021/11/25 07:48:32;;;;;;;68.80;49.60;;;;;;;1.55;100.00;101085.84;5118860;27;20027;-66
2021/11/25 07:50:57;;;;;;;68.47;49.05;;;;;;;1.64;100.00;101087.97;5097683;27;20120;-66
2021/11/25 07:53:23;;;;;;;68.35;49.92;;;;;;;1.72;100.00;101090.94;5118879;27;20024;-66
2021/11/25 07:55:49;;;;;;;65.03;49.35;;;;;;;1.80;100.00;101092.16;5116867;27;20032;-67
2021/11/25 07:58:14;;;;;;;68.88;49.85;;;;;;;1.87;100.00;101091.59;5119118;27;20500;-67
2021/11/25 08:00:39;;;;;;;64.00;47.25;;;;;;;1.91;100.00;101090.91;5117137;27;20039;-65
2021/11/25 08:03:05;;;;;;;65.68;48.78;;;;;;;1.95;100.00;101091.03;5116423;27;20378;-66
2021/11/25 08:05:30;;;;;;;63.92;48.47;;;;;;;2.00;100.00;101087.81;5114091;27;20051;-69
2021/11/25 08:07:58;;;;;;;61.50;47.55;;;;;;;2.03;100.00;101090.53;5115727;27;20073;-66
2021/11/25 08:10:26;;;;;;;55.13;42.85;;;;;;;2.08;100.00;101095.94;5112606;28;20024;-65
2021/11/25 08:12:51;;;;;;;54.53;42.60;;;;;;;2.12;100.00;101099.59;5115333;27;20045;-65
2021/11/25 08:15:17;;;;;;;54.58;43.53;;;;;;;2.17;100.00;101100.66;5114409;28;20126;-66
2021/11/25 08:17:43;;;;;;;55.88;43.47;;;;;;;2.20;100.00;101108.63;5114447;27;20492;-66
2021/11/25 08:20:10;;;;;;;56.40;42.25;;;;;;;2.22;100.00;101110.47;5112865;28;20023;-67
2021/11/25 08:22:35;;;;;;;59.40;44.10;;;;;;;2.24;100.00;101103.63;5117621;27;20029;-65
2021/11/25 08:25:05;;;;;;;55.17;43.13;;;;;;;2.23;100.00;101103.56;5118291;27;20098;-65
2021/11/25 08:27:30;;;;;;;55.47;42.28;;;;;;;2.25;100.00;101101.91;5116962;27;20051;-66
2021/11/25 08:29:55;;;;;;;57.20;43.40;;;;;;;2.24;100.00;101100.09;5128008;27;20015;-65
2021/11/25 08:32:21;;;;;;;58.75;44.03;;;;;;;2.26;100.00;101101.06;5122374;27;20023;-67
2021/11/25 08:34:46;;;;;;;57.20;45.05;;;;;;;2.27;100.00;101113.28;5121157;27;20054;-66
2021/11/25 08:37:11;;;;;;;58.72;44.03;;;;;;;2.29;100.00;101103.81;5118921;28;20028;-66
2021/11/25 08:39:37;;;;;;;59.25;44.75;;;;;;;2.33;100.00;101115.25;5116998;27;20065;-66
2021/11/25 08:42:05;;;;;;;56.97;44.65;;;;;;;2.32;100.00;101114.38;5118806;27;20028;-66
2021/11/25 08:44:30;;;;;;;60.17;47.00;;;;;;;2.34;100.00;101115.31;5119061;27;20020;-67
2021/11/25 08:46:55;;;;;;;56.58;45.55;;;;;;;2.37;100.00;101115.44;5116329;27;20035;-67
2021/11/25 08:49:22;;;;;;;57.53;43.40;;;;;;;2.41;100.00;101109.53;5117108;27;20439;-67
2021/11/25 08:51:47;;;;;;;57.20;44.00;;;;;;;2.47;100.00;101115.84;5119533;27;20474;-67
2021/11/25 08:54:12;;;;;;;57.60;46.80;;;;;;;2.49;100.00;101096.81;5112729;27;20100;-67
2021/11/25 08:56:38;;;;;;;56.00;44.92;;;;;;;2.55;100.00;101106.59;5120027;27;20028;-67
2021/11/25 08:59:03;;;;;;;54.17;42.90;;;;;;;2.57;100.00;101107.56;5126915;27;20478;-70
2021/11/25 09:01:28;;;;;;;52.67;41.72;;;;;;;2.59;100.00;101092.84;5113927;27;20084;-67
2021/11/25 09:03:54;;;;;;;51.15;40.80;;;;;;;2.59;100.00;101087.63;5115857;27;20048;-68
2021/11/25 09:06:20;;;;;;;52.55;41.38;;;;;;;2.64;100.00;101077.41;5120263;27;20084;-67
2021/11/25 09:08:45;;;;;;;50.78;40.40;;;;;;;2.67;100.00;101074.91;5117117;27;20027;-68
2021/11/25 09:11:11;;;;;;;51.70;41.78;;;;;;;2.67;100.00;101070.56;5125344;27;20033;-67
2021/11/25 09:13:37;;;;;;;53.00;41.58;;;;;;;2.74;100.00;101075.19;5122923;27;20062;-68
2021/11/25 09:16:02;;;;;;;50.97;39.60;;;;;;;2.79;100.00;101078.00;5126086;27;20019;-68
2021/11/25 09:18:27;;;;;;;53.50;39.17;;;;;;;2.83;100.00;101074.69;5123009;27;20481;-67
2021/11/25 09:20:53;;;;;;;55.40;41.35;;;;;;;2.91;100.00;101074.97;5106317;27;20458;-68
2021/11/25 09:23:19;;;;;;;53.97;41.00;;;;;;;2.94;100.00;101082.91;5123897;27;20431;-69
2021/11/25 09:25:46;;;;;;;51.95;39.15;;;;;;;3.00;100.00;101084.88;5123661;27;20039;-68
2021/11/25 09:28:16;;;;;;;51.22;39.83;;;;;;;3.16;100.00;101083.75;5125001;27;20075;-70
2021/11/25 09:30:43;;;;;;;52.50;39.78;;;;;;;3.28;100.00;101084.25;5122947;27;20030;-71
2021/11/25 09:33:12;;;;;;;52.88;39.63;;;;;;;3.43;100.00;101083.91;5125423;27;20024;-68
2021/11/25 09:35:39;;;;;;;48.58;37.15;;;;;;;3.62;100.00;101086.34;5122246;27;20028;-68
2021/11/25 09:38:06;;;;;;;51.78;38.75;;;;;;;3.79;100.00;101080.88;5125443;27;20402;-67
2021/11/25 09:40:32;;;;;;;50.28;37.33;;;;;;;3.77;100.00;101075.59;5118080;27;20035;-69
2021/11/25 09:43:06;;;;;;;53.10;38.10;;;;;;;3.74;100.00;101078.09;5124824;27;20023;-70
2021/11/25 09:45:33;;;;;;;54.13;40.00;;;;;;;3.72;100.00;101090.19;5112529;27;20032;-70
2021/11/25 09:48:02;;;;;;;54.58;39.67;;;;;;;3.82;100.00;101086.19;5113357;27;20032;-67
2021/11/25 09:50:30;;;;;;;52.92;40.58;;;;;;;3.89;100.00;101076.81;5116267;27;20675;-65
2021/11/25 09:52:58;;;;;;;54.40;40.03;;;;;;;3.86;100.00;101080.25;5112482;27;20020;-68
2021/11/25 09:55:25;;;;;;;53.45;39.63;;;;;;;3.76;100.00;101080.75;5115321;27;20129;-66
2021/11/25 09:57:51;;;;;;;58.03;41.97;;;;;;;3.73;100.00;101080.63;5114418;27;20059;-67
2021/11/25 10:00:18;;;;;;;58.85;43.28;;;;;;;3.71;100.00;101077.94;5113897;27;20024;-67
2021/11/25 10:02:44;;;;;;;62.83;45.15;;;;;;;3.61;100.00;101074.13;5115327;27;20038;-68
2021/11/25 10:05:09;;;;;;;66.93;45.80;;;;;;;3.50;100.00;101072.84;5116510;27;20132;-67
2021/11/25 10:07:37;;;;;;;68.13;47.33;;;;;;;3.43;100.00;101082.19;5114602;28;20034;-68
2021/11/25 10:10:27;;;;;;;74.15;49.13;;;;;;;3.41;100.00;101083.84;5112689;28;20079;-68
2021/11/25 10:13:13;;;;;;;72.63;49.17;;;;;;;3.45;100.00;101090.06;5115858;28;20027;-67
2021/11/25 10:15:40;;;;;;;79.95;48.45;;;;;;;3.41;100.00;101082.97;5116954;28;20189;-68
2021/11/25 10:18:17;;;;;;;70.00;47.92;;;;;;;3.48;100.00;101085.88;5115093;28;20469;-79
2021/11/25 10:20:46;;;;;;;71.68;47.78;;;;;;;3.52;100.00;101083.38;5115283;28;20458;-77
2021/11/25 10:23:15;;;;;;;69.93;48.33;;;;;;;3.57;100.00;101087.03;5122999;28;20489;-78
2021/11/25 10:25:44;;;;;;;71.53;49.35;;;;;;;3.61;100.00;101088.91;5122891;28;20080;-74
2021/11/25 10:28:25;;;;;;;74.50;49.45;;;;;;;3.61;100.00;101089.81;5123122;28;20023;-73
2021/11/25 10:30:54;;;;;;;73.30;48.33;;;;;;;3.64;100.00;101089.94;5121711;28;20123;-76
2021/11/25 10:33:32;;;;;;;72.05;48.88;;;;;;;3.64;100.00;101091.63;5124453;28;20069;-74
2021/11/25 10:41:18;;;;;;;80.72;53.85;;;;;;;3.59;100.00;101083.63;5124560;28;20148;-77
2021/11/25 10:43:44;;;;;;;78.05;51.67;;;;;;;3.56;100.00;101077.41;5119585;27;20102;-77
2021/11/25 10:46:10;;;;;;;80.53;52.80;;;;;;;3.52;100.00;101076.41;5120399;27;20462;-78
2021/11/25 10:48:41;;;;;;;90.00;57.50;;;;;;;3.51;100.00;101079.88;5119040;27;20413;-77
2021/11/25 10:51:27;;;;;;;85.65;55.53;;;;;;;3.53;100.00;101077.31;5120576;27;20068;-73
2021/11/25 10:54:04;;;;;;;89.10;55.80;;;;;;;3.48;100.00;101080.63;5118922;27;20028;-74
2021/11/25 10:56:42;;;;;;;100.22;59.78;;;;;;;3.42;100.00;101082.13;5114781;27;21279;-72
2021/11/25 10:59:11;;;;;;;99.70;60.80;;;;;;;3.37;100.00;101079.34;5118909;27;20024;-73
2021/11/25 11:01:39;;;;;;;110.60;67.47;;;;;;;3.32;100.00;101078.28;5117291;27;20042;-71
2021/11/25 11:04:06;;;;;;;120.70;72.97;;;;;;;3.29;100.00;101078.16;5113642;27;20043;-74
2021/11/25 11:06:35;;;;;;;129.20;77.57;;;;;;;3.27;100.00;101091.16;5116609;27;20049;-75
2021/11/25 11:09:01;;;;;;;123.90;77.35;;;;;;;3.27;100.00;101091.16;5120254;27;20378;-74
2021/11/25 11:11:27;;;;;;;133.00;80.47;;;;;;;3.22;100.00;101087.50;5116877;27;20411;-76